createdAt,value
2017-07-11T14:45:08.685Z,10.97
2017-07-11T14:47:37.089Z,11.50
2017-07-11T14:50:05.510Z,12.60
2017-07-11T14:52:33.906Z,9.43
2017-07-11T14:55:02.697Z,13.70
2017-07-11T14:57:31.804Z,9.60
2017-07-11T15:00:00.485Z,11.00
2017-07-11T15:02:29.276Z,10.03
2017-07-11T15:04:58.879Z,11.70
2017-07-11T15:07:27.976Z,10.20
2017-07-11T15:09:56.765Z,10.50
2017-07-11T15:12:25.571Z,10.87
2017-07-11T15:14:53.971Z,11.57
2017-07-11T15:17:22.501Z,11.60
2017-07-11T15:19:51.210Z,10.43
2017-07-11T15:22:19.997Z,9.50
2017-07-11T15:24:48.793Z,10.20
2017-07-11T15:27:17.172Z,10.27
2017-07-11T15:29:46.263Z,13.03
2017-07-11T15:32:15.055Z,9.90
2017-07-11T15:34:43.830Z,8.80
2017-07-11T15:37:12.633Z,9.13
2017-07-11T15:39:41.427Z,10.27
2017-07-11T15:42:09.822Z,9.03
2017-07-11T15:44:38.210Z,8.63
2017-07-11T15:47:07.509Z,10.30
2017-07-11T15:49:35.950Z,8.70
2017-07-11T15:52:04.834Z,7.70
2017-07-11T15:54:33.542Z,7.03
2017-07-11T15:57:02.347Z,8.50
2017-07-11T15:59:30.759Z,9.10
2017-07-11T16:01:59.172Z,8.70
2017-07-11T16:04:27.582Z,7.27
2017-07-11T16:06:55.964Z,8.43
2017-07-11T16:09:24.363Z,9.80
2017-07-11T16:11:52.763Z,8.73
2017-07-11T16:14:21.163Z,15.10
2017-07-11T16:16:49.585Z,7.57
2017-07-11T16:19:18.262Z,7.40
2017-07-11T16:21:46.666Z,7.90
2017-07-11T16:24:15.087Z,7.40
2017-07-11T16:26:43.483Z,7.70
2017-07-11T16:29:11.890Z,7.87
2017-07-11T16:31:40.272Z,7.57
2017-07-11T16:34:09.166Z,10.60
2017-07-11T16:36:38.077Z,8.10
2017-07-11T16:39:48.806Z,9.20
2017-07-11T16:42:17.189Z,9.83
2017-07-11T16:44:45.591Z,9.03
2017-07-11T16:47:14.003Z,17.13
2017-07-11T16:49:42.826Z,23.83
2017-07-11T16:52:11.251Z,11.60
2017-07-11T16:54:39.643Z,12.67
2017-07-11T16:57:08.090Z,12.57
2017-07-11T16:59:36.516Z,11.47
2017-07-11T17:02:05.023Z,8.50
2017-07-11T17:04:33.446Z,9.27
2017-07-11T17:07:02.949Z,10.83
2017-07-11T17:09:31.359Z,9.93
2017-07-11T17:11:59.785Z,9.70
2017-07-11T17:14:28.248Z,9.63
2017-07-11T17:16:56.710Z,8.50
2017-07-11T17:19:25.123Z,9.83
2017-07-11T17:21:53.500Z,7.57
2017-07-11T17:24:21.920Z,18.70
2017-07-11T17:26:50.306Z,8.40
2017-07-11T17:29:19.485Z,9.93
2017-07-11T17:31:47.893Z,9.47
2017-07-11T17:34:17.037Z,9.40
2017-07-11T17:36:45.439Z,8.83
2017-07-11T17:39:14.533Z,8.90
2017-07-11T17:41:43.334Z,9.20
2017-07-11T17:44:11.725Z,10.03
2017-07-11T17:46:40.147Z,10.03
2017-07-11T17:49:08.543Z,10.27
2017-07-11T17:51:37.250Z,10.23
2017-07-11T17:54:06.034Z,14.10
2017-07-11T17:56:35.227Z,9.87
2017-07-11T17:59:04.025Z,13.60
2017-07-11T18:01:33.103Z,10.67
2017-07-11T18:04:01.518Z,16.03
2017-07-11T18:06:29.926Z,12.00
2017-07-11T18:08:58.321Z,9.93
2017-07-11T18:11:26.713Z,11.87
2017-07-11T18:13:55.639Z,11.60
2017-07-11T18:16:24.431Z,11.37
2017-07-11T18:18:53.226Z,12.90
2017-07-11T18:21:22.656Z,10.47
2017-07-11T18:23:51.050Z,11.57
2017-07-11T18:26:19.449Z,10.73
2017-07-11T18:28:47.848Z,16.33
2017-07-11T18:31:16.663Z,18.27
2017-07-11T18:33:45.079Z,15.80
2017-07-11T18:36:13.701Z,14.10
2017-07-11T18:38:42.498Z,12.27
2017-07-11T18:41:11.293Z,13.90
2017-07-11T18:43:40.663Z,13.03
2017-07-11T18:46:09.079Z,14.80
2017-07-11T18:48:37.771Z,13.40
2017-07-11T18:51:06.161Z,20.90
2017-07-11T18:53:34.585Z,12.10
2017-07-11T18:56:02.987Z,13.57
2017-07-11T18:58:31.402Z,13.27
2017-07-11T19:00:59.793Z,14.30
2017-07-11T19:03:28.345Z,13.90
2017-07-11T19:05:57.130Z,15.03
2017-07-11T19:08:25.935Z,14.20
2017-07-11T19:10:54.350Z,14.40
2017-07-11T19:13:22.749Z,14.50
2017-07-11T19:15:51.149Z,14.47
2017-07-11T19:18:19.555Z,16.83
2017-07-11T19:20:47.970Z,17.37
2017-07-11T19:23:16.357Z,17.93
2017-07-11T19:25:44.946Z,18.73
2017-07-11T19:28:13.673Z,18.83
2017-07-11T19:30:42.670Z,16.27
2017-07-11T19:33:12.485Z,17.27
2017-07-11T19:35:42.074Z,25.17
2017-07-11T19:38:10.789Z,21.93
2017-07-11T19:40:39.178Z,17.40
2017-07-11T19:43:07.595Z,16.83
2017-07-11T19:45:35.994Z,15.70
2017-07-11T19:48:04.734Z,22.07
2017-07-11T19:50:33.121Z,18.03
2017-07-11T19:53:02.438Z,24.37
2017-07-11T19:55:31.310Z,21.33
2017-07-11T19:57:59.705Z,37.73
2017-07-11T20:00:29.010Z,22.03
2017-07-11T20:02:57.402Z,19.77
2017-07-11T20:05:25.810Z,26.63
2017-07-11T20:07:54.211Z,20.83
2017-07-11T20:10:22.990Z,20.33
2017-07-11T20:12:51.792Z,27.47
2017-07-11T20:15:20.228Z,23.37
2017-07-11T20:17:48.654Z,57.47
2017-07-11T20:20:17.785Z,32.60
2017-07-11T20:22:46.204Z,29.43
2017-07-11T20:25:14.649Z,56.00
2017-07-11T20:27:44.074Z,26.77
2017-07-11T20:30:12.798Z,24.47
2017-07-11T20:32:41.611Z,58.63
2017-07-11T20:35:10.273Z,23.93
2017-07-11T20:37:39.374Z,29.03
2017-07-11T20:40:08.187Z,21.97
2017-07-11T20:42:37.005Z,28.57
2017-07-11T20:45:05.394Z,23.53
2017-07-11T20:47:33.796Z,21.20
2017-07-11T20:50:02.194Z,23.23
2017-07-11T20:52:30.611Z,27.70
2017-07-11T20:54:59.001Z,22.00
2017-07-11T20:57:27.656Z,22.57
2017-07-11T20:59:56.422Z,21.70
2017-07-11T21:02:24.823Z,20.73
2017-07-11T21:04:53.319Z,20.87
2017-07-11T21:07:21.973Z,22.97
2017-07-11T21:09:50.784Z,22.00
2017-07-11T21:12:19.184Z,25.40
2017-07-11T21:14:47.584Z,24.50
2017-07-11T21:17:15.973Z,29.27
2017-07-11T21:19:44.692Z,22.23
2017-07-11T21:22:13.477Z,27.17
2017-07-11T21:24:42.273Z,25.93
2017-07-11T21:27:10.674Z,29.70
2017-07-11T21:29:39.087Z,31.70
2017-07-11T21:32:07.542Z,28.50
2017-07-11T21:34:35.945Z,24.47
2017-07-11T21:37:04.359Z,24.10
2017-07-11T21:39:33.470Z,25.03
2017-07-11T21:42:02.272Z,32.00
2017-07-11T21:44:30.661Z,26.83
2017-07-11T21:46:59.326Z,23.27
2017-07-11T21:49:28.109Z,22.13
2017-07-11T21:51:57.510Z,22.03
2017-07-11T21:54:27.276Z,25.10
2017-07-11T21:56:55.684Z,21.50
2017-07-11T21:59:24.076Z,22.87
2017-07-11T22:01:53.186Z,18.00
2017-07-11T22:04:21.964Z,19.90
2017-07-11T22:06:50.957Z,24.13
2017-07-11T22:09:19.740Z,18.80
2017-07-11T22:11:48.440Z,23.83
2017-07-11T22:14:16.853Z,25.80
2017-07-11T22:16:45.246Z,38.33
2017-07-11T22:19:13.877Z,19.27
2017-07-11T22:21:42.757Z,19.03
2017-07-11T22:24:11.199Z,21.60
2017-07-11T22:26:40.526Z,22.57
2017-07-11T22:29:09.252Z,44.77
2017-07-11T22:31:38.037Z,27.53
2017-07-11T22:34:07.846Z,26.03
2017-07-11T22:36:36.631Z,19.20
2017-07-11T22:39:05.739Z,20.90
2017-07-11T22:41:34.408Z,18.20
2017-07-11T22:44:02.810Z,20.30
2017-07-11T22:46:31.494Z,16.70
2017-07-11T22:49:00.469Z,15.40
2017-07-11T22:51:28.866Z,15.20
2017-07-11T22:53:57.651Z,14.53
2017-07-11T22:56:27.058Z,19.30
2017-07-11T22:58:55.845Z,20.43
2017-07-11T23:01:24.635Z,19.03
2017-07-11T23:03:53.628Z,17.23
2017-07-11T23:06:22.422Z,19.27
2017-07-11T23:08:51.209Z,17.57
2017-07-11T23:11:20.606Z,18.17
2017-07-11T23:13:49.773Z,17.87
2017-07-11T23:16:18.166Z,31.57
2017-07-11T23:18:46.757Z,22.57
2017-07-11T23:21:15.154Z,23.50
2017-07-11T23:23:43.959Z,26.43
2017-07-11T23:26:12.379Z,26.90
2017-07-11T23:28:40.994Z,29.50
2017-07-11T23:31:09.782Z,28.93
2017-07-11T23:33:38.577Z,28.23
2017-07-11T23:36:07.391Z,29.80
2017-07-11T23:38:36.069Z,33.87
2017-07-11T23:41:04.525Z,29.73
2017-07-11T23:43:33.325Z,30.80
2017-07-11T23:46:02.322Z,25.87
2017-07-11T23:48:31.893Z,25.80
2017-07-11T23:51:00.275Z,27.73
2017-07-11T23:53:28.686Z,26.17
2017-07-11T23:55:57.486Z,26.27
2017-07-11T23:58:26.587Z,25.23
